map of CGR home
CGR - Airport
Location
City:  Campo Grande, Mato Grosso do Sul, Brazil
Name:Campo Grande International Airport
ICAO:SBCG
IATA:CGR

Details
Type:Airport (Aerodrome, Airfield)
Use:Public/Civil, Military, International (customs port of entry)
Latitude:2028'07"S (-20.468666)
Longitude:5440'21"W (-54.672499)
Datum:WGS 1984
Elevation:1833 ft (559 m)
Variation:17.67W (WMM2015 magnetic declination)
-0.16 annual change
Runways:1
Longest:8530 × 141 ft (2600 × 43 m), paved

Time
Time Zone:UTC-4 (DST-3)
Local Time:

Weather
METAR:SBCG 201500Z 08012KT 050V120 9999 FEW030 29/20 Q1013
TAF:SBCG 200900Z 2012/2112 10015KT CAVOK TX31/2018Z TN19/2108Z
BECMG 2014/2016 10012KT
BECMG 2022/2024 11014KT
RMK PDJ

Related Locations
Nearby:
Farthest:BSO: 12231 mi / 19684 km
Basco, PH

Find:

   beyond  
but within

Other Information
Maps:
NOTAMs:
Links:
Sources:

  
  • flag of Brazil
  • flag of Mato Grosso do Sul
  

Sectional Chart

Flight Planning
at skyvector.com

Satellite Image

Google Maps Satellite view

 

Copyright © 2004-2018 Karl L. Swartz. All rights reserved.
The Great Circle Mapper name and logo are trademarks of the Great Circle Mapper.
All other trademarks mentioned herein belong to their respective owners.
Please see credits for attibutions and further copyright information.

  Follow gcmap on Facebook Follow gcmap on Twitter Follow gcmap on Google+ GCmap on LinkedIn

hCard Microformat

Geo Microformat